sensor_id;sensor_type;location;lat;lon;timestamp;temperature;humidity
65989;HTU21D;53592;51.402;6.054;2023-06-22T00:00:57;22.24;59.57
65989;HTU21D;53592;51.402;6.054;2023-06-22T00:03:25;22.23;59.83
65989;HTU21D;53592;51.402;6.054;2023-06-22T00:05:51;22.19;60.12
65989;HTU21D;53592;51.402;6.054;2023-06-22T00:08:18;22.21;60.34
65989;HTU21D;53592;51.402;6.054;2023-06-22T00:10:45;22.23;60.51
65989;HTU21D;53592;51.402;6.054;2023-06-22T00:13:11;22.23;60.78
65989;HTU21D;53592;51.402;6.054;2023-06-22T00:15:39;22.25;60.98
65989;HTU21D;53592;51.402;6.054;2023-06-22T00:18:09;22.24;61.06
65989;HTU21D;53592;51.402;6.054;2023-06-22T00:20:35;22.27;61.28
65989;HTU21D;53592;51.402;6.054;2023-06-22T00:23:06;22.28;61.39
65989;HTU21D;53592;51.402;6.054;2023-06-22T00:25:35;22.27;61.48
65989;HTU21D;53592;51.402;6.054;2023-06-22T00:28:02;22.34;61.47
65989;HTU21D;53592;51.402;6.054;2023-06-22T00:30:27;22.39;61.37
65989;HTU21D;53592;51.402;6.054;2023-06-22T00:32:53;22.40;61.31
65989;HTU21D;53592;51.402;6.054;2023-06-22T00:35:19;22.39;61.50
65989;HTU21D;53592;51.402;6.054;2023-06-22T00:37:44;22.37;61.79
65989;HTU21D;53592;51.402;6.054;2023-06-22T00:40:10;22.38;61.90
65989;HTU21D;53592;51.402;6.054;2023-06-22T00:42:37;22.39;61.99
65989;HTU21D;53592;51.402;6.054;2023-06-22T00:45:04;22.39;62.13
65989;HTU21D;53592;51.402;6.054;2023-06-22T00:47:30;22.38;62.19
65989;HTU21D;53592;51.402;6.054;2023-06-22T00:49:55;22.40;62.44
65989;HTU21D;53592;51.402;6.054;2023-06-22T00:52:24;22.42;62.57
65989;HTU21D;53592;51.402;6.054;2023-06-22T00:54:55;22.43;62.70
65989;HTU21D;53592;51.402;6.054;2023-06-22T00:57:22;22.42;62.76
65989;HTU21D;53592;51.402;6.054;2023-06-22T00:59:48;22.36;63.04
65989;HTU21D;53592;51.402;6.054;2023-06-22T01:02:14;22.32;63.13
65989;HTU21D;53592;51.402;6.054;2023-06-22T01:04:40;22.32;63.30
65989;HTU21D;53592;51.402;6.054;2023-06-22T01:07:31;22.31;63.42
65989;HTU21D;53592;51.402;6.054;2023-06-22T01:10:07;22.29;63.75
65989;HTU21D;53592;51.402;6.054;2023-06-22T01:12:40;22.32;63.98
65989;HTU21D;53592;51.402;6.054;2023-06-22T01:15:18;22.33;64.03
65989;HTU21D;53592;51.402;6.054;2023-06-22T01:17:48;22.33;63.88
65989;HTU21D;53592;51.402;6.054;2023-06-22T01:20:16;22.31;64.18
65989;HTU21D;53592;51.402;6.054;2023-06-22T01:25:45;22.23;64.53
65989;HTU21D;53592;51.402;6.054;2023-06-22T01:30:41;22.24;64.86
65989;HTU21D;53592;51.402;6.054;2023-06-22T01:33:11;22.27;64.85
65989;HTU21D;53592;51.402;6.054;2023-06-22T01:35:38;22.28;65.02
65989;HTU21D;53592;51.402;6.054;2023-06-22T01:38:06;22.25;65.02
65989;HTU21D;53592;51.402;6.054;2023-06-22T01:40:33;22.23;64.92
65989;HTU21D;53592;51.402;6.054;2023-06-22T01:43:03;22.22;64.92
65989;HTU21D;53592;51.402;6.054;2023-06-22T01:45:30;22.25;65.01
65989;HTU21D;53592;51.402;6.054;2023-06-22T01:47:56;22.29;65.00
65989;HTU21D;53592;51.402;6.054;2023-06-22T01:50:22;22.34;64.82
65989;HTU21D;53592;51.402;6.054;2023-06-22T01:52:47;22.36;64.94
65989;HTU21D;53592;51.402;6.054;2023-06-22T01:55:13;22.39;64.92
65989;HTU21D;53592;51.402;6.054;2023-06-22T01:57:39;22.40;65.00
65989;HTU21D;53592;51.402;6.054;2023-06-22T02:00:13;22.41;64.76
65989;HTU21D;53592;51.402;6.054;2023-06-22T02:02:53;22.46;64.64
65989;HTU21D;53592;51.402;6.054;2023-06-22T02:05:25;22.44;64.58
65989;HTU21D;53592;51.402;6.054;2023-06-22T02:08:02;22.40;64.74
65989;HTU21D;53592;51.402;6.054;2023-06-22T02:10:31;22.37;64.82
65989;HTU21D;53592;51.402;6.054;2023-06-22T02:12:59;22.36;64.99
65989;HTU21D;53592;51.402;6.054;2023-06-22T02:15:26;22.31;65.07
65989;HTU21D;53592;51.402;6.054;2023-06-22T02:17:51;22.28;65.29
65989;HTU21D;53592;51.402;6.054;2023-06-22T02:20:17;22.26;65.49
65989;HTU21D;53592;51.402;6.054;2023-06-22T02:22:43;22.23;65.34
65989;HTU21D;53592;51.402;6.054;2023-06-22T02:25:09;22.19;65.51
65989;HTU21D;53592;51.402;6.054;2023-06-22T02:27:34;22.13;65.75
65989;HTU21D;53592;51.402;6.054;2023-06-22T02:30:00;22.12;65.83
65989;HTU21D;53592;51.402;6.054;2023-06-22T02:32:25;22.10;65.95
65989;HTU21D;53592;51.402;6.054;2023-06-22T02:34:52;22.08;66.14
65989;HTU21D;53592;51.402;6.054;2023-06-22T02:37:17;22.04;66.36
65989;HTU21D;53592;51.402;6.054;2023-06-22T02:39:43;21.98;66.45
65989;HTU21D;53592;51.402;6.054;2023-06-22T02:42:08;22.01;66.42
65989;HTU21D;53592;51.402;6.054;2023-06-22T02:44:36;22.01;66.47
65989;HTU21D;53592;51.402;6.054;2023-06-22T02:47:02;22.04;66.52
65989;HTU21D;53592;51.402;6.054;2023-06-22T02:49:27;21.98;66.63
65989;HTU21D;53592;51.402;6.054;2023-06-22T02:51:53;21.97;66.69
65989;HTU21D;53592;51.402;6.054;2023-06-22T02:54:19;21.95;66.85
65989;HTU21D;53592;51.402;6.054;2023-06-22T02:56:44;21.94;66.78
65989;HTU21D;53592;51.402;6.054;2023-06-22T02:59:10;21.91;66.77
65989;HTU21D;53592;51.402;6.054;2023-06-22T03:01:36;21.89;66.84
65989;HTU21D;53592;51.402;6.054;2023-06-22T03:04:14;21.84;66.86
65989;HTU21D;53592;51.402;6.054;2023-06-22T03:06:40;21.79;66.97
65989;HTU21D;53592;51.402;6.054;2023-06-22T03:09:06;21.76;67.20
65989;HTU21D;53592;51.402;6.054;2023-06-22T03:11:33;21.76;67.38
65989;HTU21D;53592;51.402;6.054;2023-06-22T03:14:00;21.75;67.34
65989;HTU21D;53592;51.402;6.054;2023-06-22T03:16:25;21.78;67.45
65989;HTU21D;53592;51.402;6.054;2023-06-22T03:18:51;21.80;67.39
65989;HTU21D;53592;51.402;6.054;2023-06-22T03:21:19;21.81;67.36
65989;HTU21D;53592;51.402;6.054;2023-06-22T03:23:44;21.79;67.29
65989;HTU21D;53592;51.402;6.054;2023-06-22T03:26:10;21.75;67.45
65989;HTU21D;53592;51.402;6.054;2023-06-22T03:28:37;21.73;67.40
65989;HTU21D;53592;51.402;6.054;2023-06-22T03:31:03;21.65;67.55
65989;HTU21D;53592;51.402;6.054;2023-06-22T03:33:29;21.65;67.66
65989;HTU21D;53592;51.402;6.054;2023-06-22T03:35:55;21.66;67.76
65989;HTU21D;53592;51.402;6.054;2023-06-22T03:38:20;21.64;67.62
65989;HTU21D;53592;51.402;6.054;2023-06-22T03:40:46;21.62;67.59
65989;HTU21D;53592;51.402;6.054;2023-06-22T03:43:11;21.64;67.56
65989;HTU21D;53592;51.402;6.054;2023-06-22T03:45:37;21.60;67.61
65989;HTU21D;53592;51.402;6.054;2023-06-22T03:48:03;21.61;67.64
65989;HTU21D;53592;51.402;6.054;2023-06-22T03:50:28;21.64;67.84
65989;HTU21D;53592;51.402;6.054;2023-06-22T03:52:55;21.66;67.78
65989;HTU21D;53592;51.402;6.054;2023-06-22T03:55:21;21.67;67.63
65989;HTU21D;53592;51.402;6.054;2023-06-22T03:57:46;21.67;67.65
65989;HTU21D;53592;51.402;6.054;2023-06-22T04:00:13;21.67;67.71
65989;HTU21D;53592;51.402;6.054;2023-06-22T04:02:38;21.64;67.65
65989;HTU21D;53592;51.402;6.054;2023-06-22T04:05:05;21.68;67.70
65989;HTU21D;53592;51.402;6.054;2023-06-22T04:07:30;21.66;67.67
65989;HTU21D;53592;51.402;6.054;2023-06-22T04:09:56;21.69;67.68
65989;HTU21D;53592;51.402;6.054;2023-06-22T04:12:21;21.68;67.52
65989;HTU21D;53592;51.402;6.054;2023-06-22T04:14:47;21.69;67.58
65989;HTU21D;53592;51.402;6.054;2023-06-22T04:17:12;21.75;67.50
65989;HTU21D;53592;51.402;6.054;2023-06-22T04:19:40;21.76;67.40
65989;HTU21D;53592;51.402;6.054;2023-06-22T04:22:06;21.74;67.38
65989;HTU21D;53592;51.402;6.054;2023-06-22T04:24:33;21.72;67.50
65989;HTU21D;53592;51.402;6.054;2023-06-22T04:26:59;21.72;67.54
65989;HTU21D;53592;51.402;6.054;2023-06-22T04:29:25;21.73;67.63
65989;HTU21D;53592;51.402;6.054;2023-06-22T04:31:54;21.73;67.67
65989;HTU21D;53592;51.402;6.054;2023-06-22T04:34:21;21.70;67.81
65989;HTU21D;53592;51.402;6.054;2023-06-22T04:36:46;21.70;67.84
65989;HTU21D;53592;51.402;6.054;2023-06-22T04:39:12;21.69;67.84
65989;HTU21D;53592;51.402;6.054;2023-06-22T04:41:39;21.67;67.96
65989;HTU21D;53592;51.402;6.054;2023-06-22T04:44:18;21.66;68.17
65989;HTU21D;53592;51.402;6.054;2023-06-22T04:46:56;21.65;68.23
65989;HTU21D;53592;51.402;6.054;2023-06-22T04:49:26;21.62;68.32
65989;HTU21D;53592;51.402;6.054;2023-06-22T04:52:16;21.64;68.35
65989;HTU21D;53592;51.402;6.054;2023-06-22T04:54:43;21.66;68.13
65989;HTU21D;53592;51.402;6.054;2023-06-22T04:57:21;21.67;68.27
65989;HTU21D;53592;51.402;6.054;2023-06-22T04:59:55;21.66;68.46
65989;HTU21D;53592;51.402;6.054;2023-06-22T05:02:21;21.66;68.71
65989;HTU21D;53592;51.402;6.054;2023-06-22T05:04:48;21.73;68.57
65989;HTU21D;53592;51.402;6.054;2023-06-22T05:07:16;21.80;68.42
65989;HTU21D;53592;51.402;6.054;2023-06-22T05:09:42;21.87;68.18
65989;HTU21D;53592;51.402;6.054;2023-06-22T05:12:07;21.89;68.05
65989;HTU21D;53592;51.402;6.054;2023-06-22T05:14:33;21.89;68.03
65989;HTU21D;53592;51.402;6.054;2023-06-22T05:16:58;21.90;68.00
65989;HTU21D;53592;51.402;6.054;2023-06-22T05:19:25;21.91;68.01
65989;HTU21D;53592;51.402;6.054;2023-06-22T05:21:50;21.97;68.33
65989;HTU21D;53592;51.402;6.054;2023-06-22T05:24:16;22.12;67.93
65989;HTU21D;53592;51.402;6.054;2023-06-22T05:26:41;22.20;67.66
65989;HTU21D;53592;51.402;6.054;2023-06-22T05:29:07;22.27;67.43
65989;HTU21D;53592;51.402;6.054;2023-06-22T05:31:33;22.41;67.07
65989;HTU21D;53592;51.402;6.054;2023-06-22T05:33:58;22.47;66.68
65989;HTU21D;53592;51.402;6.054;2023-06-22T05:36:25;22.60;66.42
65989;HTU21D;53592;51.402;6.054;2023-06-22T05:38:52;22.67;66.39
65989;HTU21D;53592;51.402;6.054;2023-06-22T05:41:17;22.77;66.10
65989;HTU21D;53592;51.402;6.054;2023-06-22T05:43:43;22.86;65.88
65989;HTU21D;53592;51.402;6.054;2023-06-22T05:46:08;22.92;65.55
65989;HTU21D;53592;51.402;6.054;2023-06-22T05:48:34;22.92;65.51
65989;HTU21D;53592;51.402;6.054;2023-06-22T05:50:59;22.93;65.44
65989;HTU21D;53592;51.402;6.054;2023-06-22T05:53:25;23.00;65.64
65989;HTU21D;53592;51.402;6.054;2023-06-22T05:55:51;23.03;65.63
65989;HTU21D;53592;51.402;6.054;2023-06-22T05:58:16;23.11;65.33
65989;HTU21D;53592;51.402;6.054;2023-06-22T06:00:42;23.15;65.05
65989;HTU21D;53592;51.402;6.054;2023-06-22T06:03:09;23.13;64.64
65989;HTU21D;53592;51.402;6.054;2023-06-22T06:05:36;23.08;64.71
65989;HTU21D;53592;51.402;6.054;2023-06-22T06:08:04;23.09;64.92
65989;HTU21D;53592;51.402;6.054;2023-06-22T06:10:33;23.08;64.73
65989;HTU21D;53592;51.402;6.054;2023-06-22T06:12:59;23.13;64.95
65989;HTU21D;53592;51.402;6.054;2023-06-22T06:15:28;23.17;64.50
65989;HTU21D;53592;51.402;6.054;2023-06-22T06:17:54;23.14;64.66
65989;HTU21D;53592;51.402;6.054;2023-06-22T06:20:22;23.18;64.74
65989;HTU21D;53592;51.402;6.054;2023-06-22T06:22:49;23.26;64.92
65989;HTU21D;53592;51.402;6.054;2023-06-22T06:25:15;23.29;64.48
65989;HTU21D;53592;51.402;6.054;2023-06-22T06:27:49;23.32;64.24
65989;HTU21D;53592;51.402;6.054;2023-06-22T06:30:17;23.38;64.27
65989;HTU21D;53592;51.402;6.054;2023-06-22T06:32:44;23.47;64.37
65989;HTU21D;53592;51.402;6.054;2023-06-22T06:35:11;23.60;64.00
65989;HTU21D;53592;51.402;6.054;2023-06-22T06:40:13;23.61;63.26
65989;HTU21D;53592;51.402;6.054;2023-06-22T06:45:11;23.56;63.21
65989;HTU21D;53592;51.402;6.054;2023-06-22T06:47:37;23.61;63.38
65989;HTU21D;53592;51.402;6.054;2023-06-22T06:52:34;23.73;63.37
65989;HTU21D;53592;51.402;6.054;2023-06-22T07:05:03;23.55;63.16
65989;HTU21D;53592;51.402;6.054;2023-06-22T07:07:30;23.49;63.47
65989;HTU21D;53592;51.402;6.054;2023-06-22T07:09:55;23.50;63.44
65989;HTU21D;53592;51.402;6.054;2023-06-22T07:12:20;23.52;63.56
65989;HTU21D;53592;51.402;6.054;2023-06-22T07:22:17;23.84;63.05
65989;HTU21D;53592;51.402;6.054;2023-06-22T07:34:49;24.21;62.54
65989;HTU21D;53592;51.402;6.054;2023-06-22T07:37:14;24.27;62.25
65989;HTU21D;53592;51.402;6.054;2023-06-22T07:44:41;24.49;61.48
65989;HTU21D;53592;51.402;6.054;2023-06-22T07:47:07;24.54;60.94
65989;HTU21D;53592;51.402;6.054;2023-06-22T07:52:00;24.58;61.10
65989;HTU21D;53592;51.402;6.054;2023-06-22T07:54:27;24.64;60.27
65989;HTU21D;53592;51.402;6.054;2023-06-22T07:56:52;24.60;60.34
65989;HTU21D;53592;51.402;6.054;2023-06-22T08:01:45;24.64;60.21
65989;HTU21D;53592;51.402;6.054;2023-06-22T08:04:14;24.66;60.35
65989;HTU21D;53592;51.402;6.054;2023-06-22T08:06:41;24.75;60.01
65989;HTU21D;53592;51.402;6.054;2023-06-22T08:09:07;24.75;59.42
65989;HTU21D;53592;51.402;6.054;2023-06-22T08:11:32;24.73;59.25
65989;HTU21D;53592;51.402;6.054;2023-06-22T08:13:58;24.77;59.23
65989;HTU21D;53592;51.402;6.054;2023-06-22T08:16:24;24.83;59.10
65989;HTU21D;53592;51.402;6.054;2023-06-22T08:18:49;24.86;58.94
65989;HTU21D;53592;51.402;6.054;2023-06-22T08:21:15;24.91;58.99
65989;HTU21D;53592;51.402;6.054;2023-06-22T08:23:41;24.99;58.97
65989;HTU21D;53592;51.402;6.054;2023-06-22T08:26:06;25.05;58.59
65989;HTU21D;53592;51.402;6.054;2023-06-22T08:28:32;25.12;58.10
65989;HTU21D;53592;51.402;6.054;2023-06-22T08:30:57;25.20;57.83
65989;HTU21D;53592;51.402;6.054;2023-06-22T08:33:23;25.23;57.51
65989;HTU21D;53592;51.402;6.054;2023-06-22T08:35:54;25.24;57.48
65989;HTU21D;53592;51.402;6.054;2023-06-22T08:38:20;25.34;57.51
65989;HTU21D;53592;51.402;6.054;2023-06-22T08:40:46;25.40;57.29
65989;HTU21D;53592;51.402;6.054;2023-06-22T08:43:11;25.47;57.02
65989;HTU21D;53592;51.402;6.054;2023-06-22T08:45:37;25.46;56.83
65989;HTU21D;53592;51.402;6.054;2023-06-22T08:48:02;25.57;56.84
65989;HTU21D;53592;51.402;6.054;2023-06-22T08:50:28;25.68;56.90
65989;HTU21D;53592;51.402;6.054;2023-06-22T08:52:53;25.79;56.37
65989;HTU21D;53592;51.402;6.054;2023-06-22T08:55:19;25.83;55.84
65989;HTU21D;53592;51.402;6.054;2023-06-22T08:57:44;25.86;55.70
65989;HTU21D;53592;51.402;6.054;2023-06-22T09:00:10;25.91;55.42
65989;HTU21D;53592;51.402;6.054;2023-06-22T09:02:42;25.99;55.34
65989;HTU21D;53592;51.402;6.054;2023-06-22T09:05:07;26.08;54.90
65989;HTU21D;53592;51.402;6.054;2023-06-22T09:07:33;26.11;55.12
65989;HTU21D;53592;51.402;6.054;2023-06-22T09:09:59;26.19;54.75
65989;HTU21D;53592;51.402;6.054;2023-06-22T09:12:25;26.24;55.14
65989;HTU21D;53592;51.402;6.054;2023-06-22T09:14:53;26.33;54.62
65989;HTU21D;53592;51.402;6.054;2023-06-22T09:17:19;26.36;54.00
65989;HTU21D;53592;51.402;6.054;2023-06-22T09:19:44;26.34;53.79
65989;HTU21D;53592;51.402;6.054;2023-06-22T09:22:10;26.40;54.14
65989;HTU21D;53592;51.402;6.054;2023-06-22T09:24:35;26.52;53.84
65989;HTU21D;53592;51.402;6.054;2023-06-22T09:27:01;26.53;53.84
65989;HTU21D;53592;51.402;6.054;2023-06-22T09:29:26;26.55;53.79
65989;HTU21D;53592;51.402;6.054;2023-06-22T09:31:52;26.65;54.11
65989;HTU21D;53592;51.402;6.054;2023-06-22T09:34:19;26.69;53.59
65989;HTU21D;53592;51.402;6.054;2023-06-22T09:36:46;26.70;53.39
65989;HTU21D;53592;51.402;6.054;2023-06-22T09:39:11;26.69;53.48
65989;HTU21D;53592;51.402;6.054;2023-06-22T09:41:37;26.77;53.49
65989;HTU21D;53592;51.402;6.054;2023-06-22T09:44:02;26.68;53.65
65989;HTU21D;53592;51.402;6.054;2023-06-22T09:46:28;26.63;53.81
65989;HTU21D;53592;51.402;6.054;2023-06-22T09:48:54;26.53;54.12
65989;HTU21D;53592;51.402;6.054;2023-06-22T09:51:20;26.48;54.30
65989;HTU21D;53592;51.402;6.054;2023-06-22T09:53:47;26.39;54.57
65989;HTU21D;53592;51.402;6.054;2023-06-22T09:56:13;26.34;54.69
65989;HTU21D;53592;51.402;6.054;2023-06-22T09:58:45;26.18;55.08
65989;HTU21D;53592;51.402;6.054;2023-06-22T10:01:11;26.07;55.41
65989;HTU21D;53592;51.402;6.054;2023-06-22T10:03:37;25.99;55.65
65989;HTU21D;53592;51.402;6.054;2023-06-22T10:06:03;25.93;56.07
65989;HTU21D;53592;51.402;6.054;2023-06-22T10:08:28;25.89;56.53
65989;HTU21D;53592;51.402;6.054;2023-06-22T10:10:54;25.87;56.81
65989;HTU21D;53592;51.402;6.054;2023-06-22T10:13:20;25.84;56.90
65989;HTU21D;53592;51.402;6.054;2023-06-22T10:15:45;25.75;57.22
65989;HTU21D;53592;51.402;6.054;2023-06-22T10:18:18;25.72;57.48
65989;HTU21D;53592;51.402;6.054;2023-06-22T10:20:47;25.66;57.73
65989;HTU21D;53592;51.402;6.054;2023-06-22T10:23:12;25.61;57.82
65989;HTU21D;53592;51.402;6.054;2023-06-22T10:25:38;25.59;57.99
65989;HTU21D;53592;51.402;6.054;2023-06-22T10:28:03;25.59;57.99
65989;HTU21D;53592;51.402;6.054;2023-06-22T10:30:29;25.56;58.14
65989;HTU21D;53592;51.402;6.054;2023-06-22T10:32:54;25.60;58.27
65989;HTU21D;53592;51.402;6.054;2023-06-22T10:35:20;25.60;58.79
65989;HTU21D;53592;51.402;6.054;2023-06-22T10:37:46;25.65;59.02
65989;HTU21D;53592;51.402;6.054;2023-06-22T10:40:16;25.69;59.08
65989;HTU21D;53592;51.402;6.054;2023-06-22T10:42:42;25.78;59.09
65989;HTU21D;53592;51.402;6.054;2023-06-22T10:45:08;25.80;59.03
65989;HTU21D;53592;51.402;6.054;2023-06-22T10:47:34;25.83;58.86
65989;HTU21D;53592;51.402;6.054;2023-06-22T10:50:00;25.83;58.45
65989;HTU21D;53592;51.402;6.054;2023-06-22T10:52:26;25.75;58.47
65989;HTU21D;53592;51.402;6.054;2023-06-22T10:54:51;25.64;58.88
65989;HTU21D;53592;51.402;6.054;2023-06-22T10:57:18;25.60;59.21
65989;HTU21D;53592;51.402;6.054;2023-06-22T10:59:43;25.52;59.61
65989;HTU21D;53592;51.402;6.054;2023-06-22T11:02:09;25.50;60.02
65989;HTU21D;53592;51.402;6.054;2023-06-22T11:04:35;25.47;59.86
65989;HTU21D;53592;51.402;6.054;2023-06-22T11:07:00;25.42;60.18
65989;HTU21D;53592;51.402;6.054;2023-06-22T11:09:26;25.33;60.75
65989;HTU21D;53592;51.402;6.054;2023-06-22T11:11:52;25.25;61.00
65989;HTU21D;53592;51.402;6.054;2023-06-22T11:14:21;25.16;62.02
65989;HTU21D;53592;51.402;6.054;2023-06-22T11:16:47;25.07;62.47
65989;HTU21D;53592;51.402;6.054;2023-06-22T11:19:13;25.01;63.26
65989;HTU21D;53592;51.402;6.054;2023-06-22T11:21:39;25.00;64.47
65989;HTU21D;53592;51.402;6.054;2023-06-22T11:24:05;25.01;65.23
65989;HTU21D;53592;51.402;6.054;2023-06-22T11:26:30;25.07;65.61
65989;HTU21D;53592;51.402;6.054;2023-06-22T11:28:57;25.13;66.16
65989;HTU21D;53592;51.402;6.054;2023-06-22T11:31:24;25.16;66.44
65989;HTU21D;53592;51.402;6.054;2023-06-22T11:33:50;25.18;66.81
65989;HTU21D;53592;51.402;6.054;2023-06-22T11:36:16;25.18;67.09
65989;HTU21D;53592;51.402;6.054;2023-06-22T11:38:42;25.15;67.21
65989;HTU21D;53592;51.402;6.054;2023-06-22T11:41:08;25.17;67.58
65989;HTU21D;53592;51.402;6.054;2023-06-22T11:43:34;25.14;67.55
65989;HTU21D;53592;51.402;6.054;2023-06-22T11:46:02;25.05;67.72
65989;HTU21D;53592;51.402;6.054;2023-06-22T11:48:30;24.97;68.17
65989;HTU21D;53592;51.402;6.054;2023-06-22T11:50:56;24.87;68.65
65989;HTU21D;53592;51.402;6.054;2023-06-22T11:53:23;24.75;69.37
65989;HTU21D;53592;51.402;6.054;2023-06-22T11:55:49;24.63;70.01
65989;HTU21D;53592;51.402;6.054;2023-06-22T11:58:14;24.65;70.90
65989;HTU21D;53592;51.402;6.054;2023-06-22T12:00:40;24.69;71.28
65989;HTU21D;53592;51.402;6.054;2023-06-22T12:03:07;24.77;71.32
65989;HTU21D;53592;51.402;6.054;2023-06-22T12:05:32;24.87;71.33
65989;HTU21D;53592;51.402;6.054;2023-06-22T12:07:58;24.93;71.20
65989;HTU21D;53592;51.402;6.054;2023-06-22T12:10:25;24.99;71.19
65989;HTU21D;53592;51.402;6.054;2023-06-22T12:12:51;25.04;71.05
65989;HTU21D;53592;51.402;6.054;2023-06-22T12:15:16;25.16;70.90
65989;HTU21D;53592;51.402;6.054;2023-06-22T12:17:42;25.21;70.60
65989;HTU21D;53592;51.402;6.054;2023-06-22T12:20:08;25.19;70.37
65989;HTU21D;53592;51.402;6.054;2023-06-22T12:22:35;25.27;70.51
65989;HTU21D;53592;51.402;6.054;2023-06-22T12:25:01;25.36;70.16
65989;HTU21D;53592;51.402;6.054;2023-06-22T12:27:26;25.46;69.62
65989;HTU21D;53592;51.402;6.054;2023-06-22T12:29:52;25.48;68.70
65989;HTU21D;53592;51.402;6.054;2023-06-22T12:32:18;25.45;68.26
65989;HTU21D;53592;51.402;6.054;2023-06-22T12:34:44;25.34;68.01
65989;HTU21D;53592;51.402;6.054;2023-06-22T12:37:09;25.28;68.01
65989;HTU21D;53592;51.402;6.054;2023-06-22T12:39:35;25.16;68.55
65989;HTU21D;53592;51.402;6.054;2023-06-22T12:42:01;25.09;68.65
65989;HTU21D;53592;51.402;6.054;2023-06-22T12:44:26;25.07;68.95
65989;HTU21D;53592;51.402;6.054;2023-06-22T12:46:52;25.12;68.84
65989;HTU21D;53592;51.402;6.054;2023-06-22T12:49:18;25.06;68.87
65989;HTU21D;53592;51.402;6.054;2023-06-22T12:51:44;24.99;68.55
65989;HTU21D;53592;51.402;6.054;2023-06-22T12:54:11;24.94;68.91
65989;HTU21D;53592;51.402;6.054;2023-06-22T12:56:37;24.91;69.04
65989;HTU21D;53592;51.402;6.054;2023-06-22T12:59:03;24.86;69.23
65989;HTU21D;53592;51.402;6.054;2023-06-22T13:01:29;24.88;69.39
65989;HTU21D;53592;51.402;6.054;2023-06-22T13:03:56;24.91;69.65
65989;HTU21D;53592;51.402;6.054;2023-06-22T13:06:21;24.97;69.92
65989;HTU21D;53592;51.402;6.054;2023-06-22T13:08:47;24.92;69.77
65989;HTU21D;53592;51.402;6.054;2023-06-22T13:11:12;24.89;70.06
65989;HTU21D;53592;51.402;6.054;2023-06-22T13:13:39;24.88;70.10
65989;HTU21D;53592;51.402;6.054;2023-06-22T13:16:05;24.80;70.38
65989;HTU21D;53592;51.402;6.054;2023-06-22T13:18:31;24.79;70.75
65989;HTU21D;53592;51.402;6.054;2023-06-22T13:20:56;24.76;70.39
65989;HTU21D;53592;51.402;6.054;2023-06-22T13:23:23;24.74;70.58
65989;HTU21D;53592;51.402;6.054;2023-06-22T13:25:49;24.73;70.48
65989;HTU21D;53592;51.402;6.054;2023-06-22T13:28:14;24.64;70.76
65989;HTU21D;53592;51.402;6.054;2023-06-22T13:30:42;24.60;70.58
65989;HTU21D;53592;51.402;6.054;2023-06-22T13:33:08;24.65;70.40
65989;HTU21D;53592;51.402;6.054;2023-06-22T13:35:34;24.63;70.07
65989;HTU21D;53592;51.402;6.054;2023-06-22T13:38:00;24.61;69.49
65989;HTU21D;53592;51.402;6.054;2023-06-22T13:40:26;24.54;69.23
65989;HTU21D;53592;51.402;6.054;2023-06-22T13:42:51;24.45;69.36
65989;HTU21D;53592;51.402;6.054;2023-06-22T13:45:17;24.42;69.51
65989;HTU21D;53592;51.402;6.054;2023-06-22T13:47:44;24.40;69.26
65989;HTU21D;53592;51.402;6.054;2023-06-22T13:50:09;24.28;69.69
65989;HTU21D;53592;51.402;6.054;2023-06-22T13:52:35;24.25;69.66
65989;HTU21D;53592;51.402;6.054;2023-06-22T13:55:02;24.25;69.51
65989;HTU21D;53592;51.402;6.054;2023-06-22T13:57:27;24.23;69.44
65989;HTU21D;53592;51.402;6.054;2023-06-22T13:59:53;24.14;69.65
65989;HTU21D;53592;51.402;6.054;2023-06-22T14:02:18;24.11;69.58
65989;HTU21D;53592;51.402;6.054;2023-06-22T14:04:44;24.09;69.55
65989;HTU21D;53592;51.402;6.054;2023-06-22T14:07:09;24.08;69.55
65989;HTU21D;53592;51.402;6.054;2023-06-22T14:09:35;24.08;69.56
65989;HTU21D;53592;51.402;6.054;2023-06-22T14:12:05;24.06;69.55
65989;HTU21D;53592;51.402;6.054;2023-06-22T14:14:32;24.03;69.42
65989;HTU21D;53592;51.402;6.054;2023-06-22T14:16:58;23.92;69.67
65989;HTU21D;53592;51.402;6.054;2023-06-22T14:19:24;23.88;69.81
65989;HTU21D;53592;51.402;6.054;2023-06-22T14:21:49;23.84;70.04
65989;HTU21D;53592;51.402;6.054;2023-06-22T14:24:15;23.79;69.98
65989;HTU21D;53592;51.402;6.054;2023-06-22T14:26:40;23.65;70.45
65989;HTU21D;53592;51.402;6.054;2023-06-22T14:29:06;23.61;70.79
65989;HTU21D;53592;51.402;6.054;2023-06-22T14:31:31;23.58;71.05
65989;HTU21D;53592;51.402;6.054;2023-06-22T14:33:57;23.57;71.06
65989;HTU21D;53592;51.402;6.054;2023-06-22T14:36:23;23.54;71.22
65989;HTU21D;53592;51.402;6.054;2023-06-22T14:38:48;23.51;71.39
65989;HTU21D;53592;51.402;6.054;2023-06-22T14:41:14;23.46;71.48
65989;HTU21D;53592;51.402;6.054;2023-06-22T14:43:49;23.40;71.59
65989;HTU21D;53592;51.402;6.054;2023-06-22T14:46:17;23.40;71.79
65989;HTU21D;53592;51.402;6.054;2023-06-22T14:48:43;23.34;71.81
65989;HTU21D;53592;51.402;6.054;2023-06-22T14:51:10;23.30;72.05
65989;HTU21D;53592;51.402;6.054;2023-06-22T14:53:36;23.25;72.35
65989;HTU21D;53592;51.402;6.054;2023-06-22T14:56:02;23.23;72.64
65989;HTU21D;53592;51.402;6.054;2023-06-22T14:58:30;23.13;73.18
65989;HTU21D;53592;51.402;6.054;2023-06-22T15:00:59;23.05;73.87
65989;HTU21D;53592;51.402;6.054;2023-06-22T15:03:24;23.01;74.42
65989;HTU21D;53592;51.402;6.054;2023-06-22T15:05:53;22.95;74.90
65989;HTU21D;53592;51.402;6.054;2023-06-22T15:08:19;22.82;75.36
65989;HTU21D;53592;51.402;6.054;2023-06-22T15:10:44;22.73;75.88
65989;HTU21D;53592;51.402;6.054;2023-06-22T15:13:10;22.66;76.48
65989;HTU21D;53592;51.402;6.054;2023-06-22T15:15:36;22.50;77.20
65989;HTU21D;53592;51.402;6.054;2023-06-22T15:18:01;22.40;77.66
65989;HTU21D;53592;51.402;6.054;2023-06-22T15:20:27;22.36;78.00
65989;HTU21D;53592;51.402;6.054;2023-06-22T15:22:52;22.27;78.35
65989;HTU21D;53592;51.402;6.054;2023-06-22T15:25:18;22.13;79.00
65989;HTU21D;53592;51.402;6.054;2023-06-22T15:27:43;22.09;79.37
65989;HTU21D;53592;51.402;6.054;2023-06-22T15:30:09;22.06;79.62
65989;HTU21D;53592;51.402;6.054;2023-06-22T15:32:35;22.01;80.01
65989;HTU21D;53592;51.402;6.054;2023-06-22T15:35:00;21.92;80.30
65989;HTU21D;53592;51.402;6.054;2023-06-22T15:37:26;21.89;80.59
65989;HTU21D;53592;51.402;6.054;2023-06-22T15:39:52;21.79;81.01
65989;HTU21D;53592;51.402;6.054;2023-06-22T15:42:17;21.72;81.29
65989;HTU21D;53592;51.402;6.054;2023-06-22T15:44:43;21.70;81.61
65989;HTU21D;53592;51.402;6.054;2023-06-22T15:47:08;21.64;81.78
65989;HTU21D;53592;51.402;6.054;2023-06-22T15:49:33;21.63;82.02
65989;HTU21D;53592;51.402;6.054;2023-06-22T15:51:59;21.64;82.08
65989;HTU21D;53592;51.402;6.054;2023-06-22T15:54:24;21.63;82.00
65989;HTU21D;53592;51.402;6.054;2023-06-22T15:56:50;21.62;82.05
65989;HTU21D;53592;51.402;6.054;2023-06-22T15:59:15;21.52;82.25
65989;HTU21D;53592;51.402;6.054;2023-06-22T16:01:41;21.52;82.36